Time;durP1;ratioP1;P1;durP2;ratioP2;P2;SDS_P1;SDS_P2;PMS_P1;PMS_P2;Temp;Humidity;BMP_temperature;BMP_pressure;BME280_temperature;BME280_humidity;BME280_pressure;Samples;Min_cycle;Max_cycle;Signal;HPM_P1;HPM_P2
2022/01/02 00:01:15;;;;;;;0.60;0.10;;;10.60;1.00;;;;;;5094865;28;20436;-74
2022/01/02 00:03:44;;;;;;;0.50;0.10;;;10.80;1.00;;;;;;5094780;28;20531;-74
2022/01/02 00:06:15;;;;;;;0.60;0.10;;;10.60;1.00;;;;;;5086403;28;20457;-75
2022/01/02 00:08:49;;;;;;;0.60;0.10;;;10.60;1.00;;;;;;5073086;28;20443;-75
2022/01/02 00:11:24;;;;;;;0.60;0.10;;;10.60;1.00;;;;;;5083393;28;20448;-75
2022/01/02 00:13:55;;;;;;;0.60;0.10;;;10.60;1.00;;;;;;5093295;28;20476;-76
2022/01/02 00:16:25;;;;;;;0.60;0.30;;;10.60;1.00;;;;;;5094456;28;20456;-74
2022/01/02 00:19:04;;;;;;;0.60;0.10;;;10.50;1.00;;;;;;5095981;28;20535;-76
2022/01/02 00:21:33;;;;;;;0.60;0.10;;;10.50;1.00;;;;;;5097095;28;20451;-74
2022/01/02 00:24:05;;;;;;;0.60;0.10;;;10.30;1.00;;;;;;5094665;28;20503;-75
2022/01/02 00:26:38;;;;;;;0.60;0.10;;;10.30;1.00;;;;;;5094315;28;20463;-76
2022/01/02 00:29:08;;;;;;;0.60;0.10;;;10.30;1.00;;;;;;5093873;28;20943;-76
2022/01/02 00:31:40;;;;;;;0.60;0.10;;;10.30;1.00;;;;;;5093614;28;20444;-74
2022/01/02 00:34:09;;;;;;;0.60;0.10;;;10.40;1.00;;;;;;5093249;28;20487;-76
2022/01/02 00:36:37;;;;;;;0.60;0.10;;;10.40;1.00;;;;;;5093745;28;20440;-76
2022/01/02 00:39:06;;;;;;;0.60;0.10;;;10.80;1.00;;;;;;5093694;28;20448;-76
2022/01/02 00:41:42;;;;;;;0.60;0.10;;;10.40;1.00;;;;;;5093771;28;20447;-77
2022/01/02 00:44:18;;;;;;;0.60;0.10;;;10.30;1.00;;;;;;5093622;28;20463;-76
2022/01/02 00:46:53;;;;;;;0.60;0.10;;;10.30;1.00;;;;;;5093978;28;20506;-75
2022/01/02 00:49:26;;;;;;;1.33;1.23;;;10.30;1.00;;;;;;5093521;28;20493;-76
2022/01/02 00:52:02;;;;;;;0.60;0.10;;;10.30;1.00;;;;;;5093412;28;20478;-74
2022/01/02 00:54:30;;;;;;;0.60;0.10;;;10.30;1.00;;;;;;5095807;28;20490;-76
2022/01/02 00:57:04;;;;;;;0.60;0.10;;;10.40;1.00;;;;;;5093711;28;20440;-75
2022/01/02 00:59:44;;;;;;;0.60;0.20;;;10.50;1.00;;;;;;5091845;28;20543;-76
2022/01/02 01:02:17;;;;;;;0.60;0.20;;;10.50;1.00;;;;;;5093013;28;20539;-73
2022/01/02 01:04:49;;;;;;;0.50;0.10;;;10.40;1.00;;;;;;5092924;28;20981;-76
2022/01/02 01:07:19;;;;;;;40.40;37.80;;;10.40;1.00;;;;;;5093117;28;20957;-73
2022/01/02 01:09:48;;;;;;;0.50;0.10;;;10.30;1.00;;;;;;5093421;28;20498;-74
2022/01/02 01:12:18;;;;;;;0.60;0.10;;;10.30;1.00;;;;;;5093294;28;20448;-76
2022/01/02 01:14:46;;;;;;;0.50;0.10;;;10.30;1.00;;;;;;5092513;28;21005;-76
2022/01/02 01:17:16;;;;;;;0.50;0.10;;;10.30;1.00;;;;;;5093439;28;20470;-76
2022/01/02 01:19:44;;;;;;;0.60;0.10;;;10.40;1.00;;;;;;5092894;28;20443;-74
2022/01/02 01:22:12;;;;;;;0.60;0.10;;;10.40;1.00;;;;;;5093338;28;20443;-75
2022/01/02 01:24:41;;;;;;;0.60;0.10;;;10.30;1.00;;;;;;5093280;28;20464;-74
2022/01/02 01:27:09;;;;;;;0.60;0.20;;;10.40;1.00;;;;;;5092973;28;20443;-76
2022/01/02 01:29:37;;;;;;;0.60;0.10;;;10.40;1.00;;;;;;5092724;28;20444;-75
2022/01/02 01:32:07;;;;;;;0.60;0.17;;;10.40;1.00;;;;;;5093064;28;20439;-75
2022/01/02 01:34:36;;;;;;;0.60;0.10;;;10.40;1.00;;;;;;5092732;28;20485;-75
2022/01/02 01:37:04;;;;;;;15.37;14.57;;;10.40;1.00;;;;;;5093395;28;20437;-75
2022/01/02 01:39:32;;;;;;;0.50;0.10;;;10.40;1.00;;;;;;5093447;28;20456;-76
2022/01/02 01:42:07;;;;;;;0.57;0.10;;;10.40;1.00;;;;;;5104606;28;20422;-77
2022/01/02 01:45:28;;;;;;;0.50;0.10;;;10.40;1.00;;;;;;5092375;28;20966;-74
2022/01/02 01:47:53;;;;;;;0.60;0.10;;;10.40;1.00;;;;;;5092489;28;20873;-75
2022/01/02 01:50:26;;;;;;;0.50;0.10;;;10.40;1.00;;;;;;5092667;28;20439;-75
2022/01/02 01:52:54;;;;;;;0.60;0.10;;;10.40;1.00;;;;;;5092341;28;20936;-75
2022/01/02 01:55:22;;;;;;;0.50;0.10;;;10.30;1.00;;;;;;5092063;28;20463;-74
2022/01/02 01:57:52;;;;;;;0.50;0.10;;;10.30;1.00;;;;;;5092536;28;20432;-74
2022/01/02 02:00:22;;;;;;;0.60;0.10;;;10.30;1.00;;;;;;5092424;28;20439;-76
2022/01/02 02:02:50;;;;;;;0.60;0.10;;;10.30;1.00;;;;;;5092456;28;20443;-75
2022/01/02 02:05:19;;;;;;;0.60;0.10;;;10.30;1.00;;;;;;5092074;28;20525;-75
2022/01/02 02:07:49;;;;;;;0.60;0.10;;;10.30;1.00;;;;;;5092830;28;20432;-75
2022/01/02 02:10:24;;;;;;;0.50;0.10;;;10.30;1.00;;;;;;5092589;28;20447;-73
2022/01/02 02:12:54;;;;;;;0.50;0.10;;;10.20;1.00;;;;;;5092352;28;20428;-74
2022/01/02 02:15:23;;;;;;;0.60;0.43;;;10.20;1.00;;;;;;5091660;28;20839;-77
2022/01/02 02:17:52;;;;;;;0.70;0.67;;;10.30;1.00;;;;;;5092300;28;20433;-74
2022/01/02 02:20:24;;;;;;;0.50;0.10;;;10.30;1.00;;;;;;5092223;28;20443;-75
2022/01/02 02:22:55;;;;;;;0.60;0.10;;;10.20;1.00;;;;;;5092047;28;20443;-75
2022/01/02 02:25:26;;;;;;;0.50;0.10;;;10.20;1.00;;;;;;5091705;28;20459;-75
2022/01/02 02:27:55;;;;;;;0.60;0.23;;;10.10;1.00;;;;;;5091971;28;20436;-75
2022/01/02 02:30:24;;;;;;;0.57;0.10;;;10.10;1.00;;;;;;5091710;28;20528;-73
2022/01/02 02:32:55;;;;;;;0.50;0.10;;;10.00;1.00;;;;;;5091965;28;20432;-75
2022/01/02 02:35:25;;;;;;;0.60;0.10;;;10.00;1.00;;;;;;5095786;28;20510;-75
2022/01/02 02:37:53;;;;;;;0.60;0.10;;;10.00;1.00;;;;;;5095784;28;20950;-76
2022/01/02 02:40:23;;;;;;;0.60;0.10;;;10.00;1.00;;;;;;5096030;28;20451;-75
2022/01/02 02:42:54;;;;;;;0.50;0.10;;;10.00;1.00;;;;;;5093694;28;20475;-74
2022/01/02 02:51:21;;;;;;;0.57;0.10;;;10.00;1.00;;;;;;5094801;28;20447;-73
2022/01/02 02:53:50;;;;;;;0.53;0.10;;;9.90;1.00;;;;;;5095713;28;20487;-74
2022/01/02 02:56:21;;;;;;;0.50;0.10;;;9.90;1.00;;;;;;5101864;28;20440;-75
2022/01/02 02:58:50;;;;;;;3.23;3.03;;;9.90;1.00;;;;;;5095621;28;20448;-77
2022/01/02 03:01:22;;;;;;;1.27;1.17;;;9.80;1.00;;;;;;5096526;28;20444;-75
2022/01/02 03:03:50;;;;;;;0.50;0.10;;;9.60;1.00;;;;;;5095882;28;20449;-73
2022/01/02 03:06:20;;;;;;;0.50;0.10;;;9.50;1.00;;;;;;5096219;28;20441;-74
2022/01/02 03:08:49;;;;;;;1.13;0.83;;;9.50;1.00;;;;;;5096763;28;20432;-75
2022/01/02 03:11:20;;;;;;;1.20;1.10;;;9.50;1.00;;;;;;5096257;28;20823;-74
2022/01/02 03:13:49;;;;;;;2.50;1.23;;;9.30;1.00;;;;;;5095610;28;20554;-74
2022/01/02 03:16:18;;;;;;;0.60;0.10;;;9.30;1.00;;;;;;5095584;28;20443;-75
2022/01/02 03:18:46;;;;;;;0.93;0.93;;;9.20;1.00;;;;;;5095205;28;20471;-75
2022/01/02 03:21:13;;;;;;;1.77;1.67;;;9.20;1.00;;;;;;5109641;28;20439;-75
2022/01/02 03:23:43;;;;;;;0.50;0.10;;;9.20;1.00;;;;;;5095376;28;20505;-74
2022/01/02 03:26:11;;;;;;;0.50;0.10;;;9.20;1.00;;;;;;5094868;28;20483;-73
2022/01/02 03:28:39;;;;;;;0.57;0.10;;;9.30;1.00;;;;;;5094834;28;20444;-77
2022/01/02 03:31:07;;;;;;;0.60;0.20;;;9.30;1.00;;;;;;5095089;28;20520;-73
2022/01/02 03:33:35;;;;;;;0.60;0.30;;;9.40;1.00;;;;;;5095758;28;20455;-76
2022/01/02 03:36:03;;;;;;;0.50;0.20;;;9.50;1.00;;;;;;5095490;28;20480;-74
2022/01/02 03:38:36;;;;;;;0.60;0.20;;;9.50;1.00;;;;;;5094895;28;20509;-76
2022/01/02 03:41:05;;;;;;;0.50;0.10;;;9.50;1.00;;;;;;5095128;28;20440;-74
2022/01/02 03:43:33;;;;;;;0.50;0.10;;;9.60;1.00;;;;;;5094560;28;20531;-74
2022/01/02 03:46:03;;;;;;;3.90;3.70;;;9.50;1.00;;;;;;5093378;28;20465;-73
2022/01/02 03:48:32;;;;;;;0.50;0.10;;;9.60;1.00;;;;;;5094663;28;20437;-74
2022/01/02 03:51:05;;;;;;;0.70;0.20;;;9.60;1.00;;;;;;5094729;28;20451;-76
2022/01/02 03:53:32;;;;;;;0.50;0.10;;;9.60;1.00;;;;;;5094712;28;20874;-74
2022/01/02 03:56:00;;;;;;;0.50;0.10;;;9.60;1.00;;;;;;5093881;28;20484;-75
2022/01/02 03:58:29;;;;;;;0.60;0.10;;;9.50;1.00;;;;;;5094520;28;20455;-75
2022/01/02 04:00:57;;;;;;;0.60;0.10;;;9.50;1.00;;;;;;5094483;28;20452;-76
2022/01/02 04:03:25;;;;;;;1.13;0.30;;;9.50;1.00;;;;;;5094531;28;20443;-75
2022/01/02 04:05:53;;;;;;;1.17;0.97;;;9.40;1.00;;;;;;5094191;28;20453;-74
2022/01/02 04:08:21;;;;;;;0.60;0.40;;;9.40;1.00;;;;;;5094541;28;20452;-75
2022/01/02 04:10:48;;;;;;;10.60;3.13;;;9.30;1.00;;;;;;5094510;28;20440;-75
2022/01/02 04:13:16;;;;;;;1.47;0.93;;;9.30;1.00;;;;;;5094623;28;20551;-75
2022/01/02 04:15:45;;;;;;;0.60;0.20;;;9.30;1.00;;;;;;5116204;22;20487;-76
2022/01/02 04:18:14;;;;;;;0.50;0.10;;;9.30;1.00;;;;;;5106400;28;20450;-76
2022/01/02 04:20:41;;;;;;;0.50;0.10;;;9.30;1.00;;;;;;5114614;28;20456;-76
2022/01/02 04:23:09;;;;;;;3.10;2.93;;;9.40;1.00;;;;;;5114698;28;20820;-76
2022/01/02 04:25:37;;;;;;;0.50;0.13;;;9.40;1.00;;;;;;5114772;28;20447;-76
2022/01/02 04:28:05;;;;;;;0.50;0.10;;;;;;;;;;5114610;28;20450;-75
2022/01/02 04:30:33;;;;;;;0.50;0.10;;;9.40;1.00;;;;;;5113815;28;20446;-75
2022/01/02 04:33:02;;;;;;;0.80;0.30;;;9.40;1.00;;;;;;5106340;28;20443;-74
2022/01/02 04:35:30;;;;;;;0.70;0.43;;;9.40;1.00;;;;;;5114234;28;20490;-74
2022/01/02 04:37:58;;;;;;;0.50;0.10;;;9.30;1.00;;;;;;5114244;28;20942;-76
2022/01/02 04:40:26;;;;;;;0.77;0.73;;;9.30;1.00;;;;;;5114715;28;20443;-74
2022/01/02 04:42:54;;;;;;;0.60;0.10;;;9.30;1.00;;;;;;5114477;28;20529;-74
2022/01/02 04:45:22;;;;;;;0.53;0.23;;;9.30;1.00;;;;;;5114487;28;20471;-74
2022/01/02 04:47:50;;;;;;;0.50;0.10;;;9.30;1.00;;;;;;5114543;28;20439;-74
2022/01/02 04:50:19;;;;;;;0.53;0.10;;;9.40;1.00;;;;;;5114345;28;21013;-76
2022/01/02 04:52:47;;;;;;;0.50;0.20;;;9.50;1.00;;;;;;5105327;28;20799;-74
2022/01/02 04:55:15;;;;;;;0.50;0.10;;;9.40;1.00;;;;;;5094284;28;20511;-75
2022/01/02 04:57:43;;;;;;;0.50;0.10;;;9.50;1.00;;;;;;5094453;28;20508;-73
2022/01/02 05:00:12;;;;;;;0.50;0.10;;;9.50;1.00;;;;;;5095403;28;20451;-75
2022/01/02 05:02:41;;;;;;;0.50;0.10;;;9.50;1.00;;;;;;5096551;28;20444;-75
2022/01/02 05:05:09;;;;;;;0.60;0.57;;;9.50;1.00;;;;;;5100246;28;20453;-73
2022/01/02 05:07:38;;;;;;;0.50;0.10;;;9.50;1.00;;;;;;5104527;28;20543;-75
2022/01/02 05:10:07;;;;;;;0.50;0.10;;;9.50;1.00;;;;;;5102883;28;20544;-75
2022/01/02 05:12:35;;;;;;;0.50;0.10;;;9.60;1.00;;;;;;5095712;28;20977;-74
2022/01/02 05:15:05;;;;;;;0.50;0.10;;;9.60;1.00;;;;;;5095987;28;20484;-75
2022/01/02 05:17:33;;;;;;;0.50;0.10;;;9.60;1.00;;;;;;5095171;28;20440;-75
2022/01/02 05:20:01;;;;;;;0.50;0.10;;;9.60;1.00;;;;;;5094674;28;20450;-75
2022/01/02 05:22:29;;;;;;;0.50;0.10;;;9.60;1.00;;;;;;5094512;28;20444;-76
2022/01/02 05:24:58;;;;;;;0.50;0.10;;;9.60;1.00;;;;;;5093213;28;20475;-76
2022/01/02 05:27:26;;;;;;;1.33;1.23;;;9.60;1.00;;;;;;5093407;28;20949;-75
2022/01/02 05:29:54;;;;;;;0.60;0.10;;;9.60;1.00;;;;;;5101195;28;20450;-74
2022/01/02 05:32:22;;;;;;;4.20;4.00;;;9.70;1.00;;;;;;5101940;28;20444;-75
2022/01/02 05:34:50;;;;;;;0.83;0.83;;;;;;;;;;5112033;28;20468;-76
2022/01/02 05:37:18;;;;;;;0.60;0.10;;;9.70;1.00;;;;;;5113348;28;20833;-75
2022/01/02 05:39:46;;;;;;;0.50;0.10;;;9.70;1.00;;;;;;5113420;28;20443;-74
2022/01/02 05:42:15;;;;;;;0.60;0.30;;;9.80;1.00;;;;;;5113243;28;20440;-74
2022/01/02 05:44:43;;;;;;;0.50;0.20;;;9.70;1.00;;;;;;5113429;28;20524;-74
2022/01/02 05:47:11;;;;;;;0.50;0.10;;;9.70;1.00;;;;;;5113444;28;20439;-75
2022/01/02 05:49:39;;;;;;;0.53;0.27;;;9.70;1.00;;;;;;5112958;28;20923;-74
2022/01/02 05:52:07;;;;;;;0.57;0.27;;;9.80;1.00;;;;;;5113739;28;20874;-74
2022/01/02 05:54:35;;;;;;;0.50;0.10;;;9.70;1.00;;;;;;5112743;28;20452;-75
2022/01/02 05:57:03;;;;;;;0.70;0.50;;;9.70;1.00;;;;;;5113570;28;20574;-75
2022/01/02 05:59:33;;;;;;;0.50;0.20;;;9.60;1.00;;;;;;5113641;28;20436;-76
2022/01/02 06:02:01;;;;;;;0.90;0.57;;;9.60;1.00;;;;;;5113823;28;20435;-75
2022/01/02 06:04:29;;;;;;;0.50;0.10;;;9.50;1.00;;;;;;5113178;28;20504;-75
2022/01/02 06:06:57;;;;;;;0.50;0.10;;;9.60;1.00;;;;;;5113087;28;20929;-74
2022/01/02 06:09:25;;;;;;;0.50;0.10;;;9.50;1.00;;;;;;5112293;28;20451;-74
2022/01/02 06:11:53;;;;;;;0.50;0.10;;;9.60;1.00;;;;;;5113099;28;20478;-76
2022/01/02 06:14:21;;;;;;;0.50;0.10;;;9.60;1.00;;;;;;5112776;28;20443;-76
2022/01/02 06:16:50;;;;;;;0.60;0.20;;;9.60;1.00;;;;;;5112850;28;20984;-76
2022/01/02 06:19:18;;;;;;;0.50;0.10;;;9.60;1.00;;;;;;5112865;28;20538;-74
2022/01/02 06:21:46;;;;;;;3.40;1.70;;;9.60;1.00;;;;;;5112634;28;20470;-75
2022/01/02 06:24:14;;;;;;;2.10;2.00;;;9.60;1.00;;;;;;5112476;28;20496;-74
2022/01/02 06:26:42;;;;;;;1.30;1.27;;;9.60;1.00;;;;;;5112748;28;20455;-75
2022/01/02 06:29:10;;;;;;;1.40;1.30;;;9.60;1.00;;;;;;5112626;28;20455;-75
2022/01/02 06:31:38;;;;;;;0.50;0.10;;;9.60;1.00;;;;;;5112480;28;20447;-76
2022/01/02 06:34:08;;;;;;;0.50;0.20;;;;;;;;;;5112643;28;20460;-76
2022/01/02 06:36:36;;;;;;;0.90;0.57;;;9.60;1.00;;;;;;5112445;28;20543;-74
2022/01/02 06:39:04;;;;;;;0.50;0.10;;;9.60;1.00;;;;;;5112853;28;20439;-74
2022/01/02 06:41:33;;;;;;;0.50;0.20;;;9.60;1.00;;;;;;5112743;28;20467;-76
2022/01/02 06:44:01;;;;;;;0.50;0.10;;;9.60;1.00;;;;;;5093512;28;20499;-73
2022/01/02 06:46:29;;;;;;;0.60;0.20;;;9.60;1.00;;;;;;5092502;28;20464;-74
2022/01/02 06:48:57;;;;;;;0.50;0.10;;;9.70;1.00;;;;;;5095331;28;20444;-74
2022/01/02 06:51:46;;;;;;;0.50;0.10;;;9.60;1.00;;;;;;5099774;28;20768;-75
2022/01/02 06:54:14;;;;;;;12.80;11.50;;;9.70;1.00;;;;;;5102284;28;20950;-74
2022/01/02 06:56:41;;;;;;;0.60;0.10;;;9.70;1.00;;;;;;5100022;28;20518;-75
2022/01/02 06:59:09;;;;;;;0.50;0.10;;;9.70;1.00;;;;;;5098092;28;20811;-75
2022/01/02 07:01:37;;;;;;;0.50;0.10;;;9.70;1.00;;;;;;5092463;28;20483;-75
2022/01/02 07:04:06;;;;;;;0.60;0.20;;;9.60;1.00;;;;;;5092827;28;20488;-75
2022/01/02 07:06:34;;;;;;;0.57;0.20;;;9.60;1.00;;;;;;5092609;28;20981;-75
2022/01/02 07:09:04;;;;;;;2.67;2.47;;;9.60;1.00;;;;;;5092744;28;20451;-75
2022/01/02 07:11:32;;;;;;;0.50;0.10;;;9.50;1.00;;;;;;5090270;28;21018;-75
2022/01/02 07:14:00;;;;;;;0.50;0.20;;;;;;;;;;5104069;28;20552;-74
2022/01/02 07:16:28;;;;;;;2.03;1.90;;;9.50;1.00;;;;;;5106260;28;21041;-75
2022/01/02 07:18:56;;;;;;;3.03;2.83;;;9.50;1.00;;;;;;5091656;28;20524;-75
2022/01/02 07:21:24;;;;;;;0.70;0.67;;;9.50;1.00;;;;;;5098784;28;20439;-76
2022/01/02 07:23:54;;;;;;;0.57;0.17;;;9.40;1.00;;;;;;5094672;28;20432;-75
2022/01/02 07:26:24;;;;;;;0.50;0.30;;;9.40;1.00;;;;;;5088692;28;20477;-74
2022/01/02 07:28:51;;;;;;;0.93;0.93;;;9.40;1.00;;;;;;5086539;28;20436;-75
2022/01/02 07:31:19;;;;;;;0.50;0.10;;;9.40;1.00;;;;;;5079334;28;20444;-75
2022/01/02 07:33:47;;;;;;;0.50;0.10;;;9.40;1.00;;;;;;5076529;28;20477;-75
2022/01/02 07:36:16;;;;;;;0.50;0.10;;;;;;;;;;5075737;28;20483;-75
2022/01/02 07:38:44;;;;;;;0.50;0.10;;;9.60;1.00;;;;;;5076186;28;20445;-74
2022/01/02 07:41:12;;;;;;;3.00;2.80;;;9.50;1.00;;;;;;5076048;28;20536;-74
2022/01/02 07:43:41;;;;;;;0.50;0.10;;;9.60;1.00;;;;;;5076053;28;20445;-74
2022/01/02 07:46:09;;;;;;;0.50;0.10;;;9.60;1.00;;;;;;5075735;28;20477;-74
2022/01/02 07:48:38;;;;;;;0.60;0.50;;;9.60;1.00;;;;;;5075117;28;20453;-76
2022/01/02 07:51:05;;;;;;;0.80;0.73;;;9.60;1.00;;;;;;5075575;28;20438;-74
2022/01/02 07:53:33;;;;;;;0.50;0.10;;;9.60;1.00;;;;;;5075415;28;20525;-76
2022/01/02 07:56:01;;;;;;;0.50;0.20;;;9.50;1.00;;;;;;5075651;28;20484;-74
2022/01/02 07:58:29;;;;;;;0.50;0.10;;;9.50;1.00;;;;;;5075779;28;20510;-75
2022/01/02 08:00:58;;;;;;;0.77;0.77;;;9.40;1.00;;;;;;5075440;28;20915;-74
2022/01/02 08:03:27;;;;;;;0.50;0.10;;;9.40;1.00;;;;;;5075241;28;20471;-76
2022/01/02 08:05:55;;;;;;;2.20;2.00;;;9.30;1.00;;;;;;5085237;28;20493;-75
2022/01/02 08:08:22;;;;;;;0.50;0.10;;;9.40;1.00;;;;;;5097242;28;20855;-75
2022/01/02 08:10:50;;;;;;;0.60;0.30;;;9.40;1.00;;;;;;5105347;28;20448;-77
2022/01/02 08:13:18;;;;;;;0.50;0.10;;;9.40;1.00;;;;;;5088891;28;20555;-75
2022/01/02 08:15:48;;;;;;;0.50;0.20;;;9.40;1.00;;;;;;5093195;28;20536;-76
2022/01/02 08:18:17;;;;;;;2.83;0.30;;;9.40;1.00;;;;;;5104358;28;20488;-75
2022/01/02 08:20:46;;;;;;;0.50;0.10;;;9.40;1.00;;;;;;5101512;28;20451;-76
2022/01/02 08:23:15;;;;;;;0.63;0.50;;;9.40;1.00;;;;;;5099963;28;20504;-75
2022/01/02 08:25:43;;;;;;;0.50;0.10;;;9.50;1.00;;;;;;5099688;28;20453;-76
2022/01/02 08:28:12;;;;;;;0.50;0.10;;;9.50;1.00;;;;;;5097429;28;20493;-75
2022/01/02 08:30:43;;;;;;;0.60;0.30;;;9.50;1.00;;;;;;5104315;28;20441;-76
2022/01/02 08:33:11;;;;;;;1.67;0.97;;;9.50;1.00;;;;;;5115543;28;20449;-76
2022/01/02 08:35:40;;;;;;;0.50;0.10;;;9.50;1.00;;;;;;5115465;28;20466;-76
2022/01/02 08:38:08;;;;;;;4.57;4.23;;;9.50;1.00;;;;;;5116460;28;20480;-75
2022/01/02 08:40:37;;;;;;;0.50;0.10;;;9.50;1.00;;;;;;5116816;28;20450;-76
2022/01/02 08:43:05;;;;;;;0.50;0.10;;;9.50;1.00;;;;;;5117191;28;20447;-77
2022/01/02 08:45:34;;;;;;;0.50;0.10;;;9.70;1.00;;;;;;5115990;28;20810;-75
2022/01/02 08:48:02;;;;;;;0.50;0.10;;;9.70;1.00;;;;;;5118418;28;20434;-76
2022/01/02 08:50:31;;;;;;;0.60;0.20;;;9.80;1.00;;;;;;5115887;28;20447;-76
2022/01/02 08:53:00;;;;;;;0.50;0.10;;;9.90;1.00;;;;;;5116508;28;20481;-77
2022/01/02 08:55:28;;;;;;;0.60;0.40;;;9.80;1.00;;;;;;5115939;28;20536;-76
2022/01/02 08:57:56;;;;;;;0.60;0.10;;;9.80;1.00;;;;;;5109892;28;20518;-75
2022/01/02 09:00:25;;;;;;;0.60;0.10;;;9.80;1.00;;;;;;5104847;28;20541;-76
2022/01/02 09:02:53;;;;;;;0.50;0.10;;;9.80;1.00;;;;;;5109124;28;20535;-76
2022/01/02 09:05:21;;;;;;;1.57;1.40;;;9.80;1.00;;;;;;5098142;28;20550;-76
2022/01/02 09:07:49;;;;;;;13.27;12.43;;;9.80;1.00;;;;;;5101278;28;20449;-77
2022/01/02 09:10:19;;;;;;;0.60;0.20;;;9.80;1.00;;;;;;5105144;28;20574;-77
2022/01/02 09:12:47;;;;;;;0.60;0.20;;;9.80;1.00;;;;;;5092196;28;20965;-75
2022/01/02 09:15:15;;;;;;;0.53;0.10;;;9.80;1.00;;;;;;5078474;28;20491;-75
2022/01/02 09:17:43;;;;;;;0.50;0.10;;;9.70;1.00;;;;;;5093049;28;20476;-77
2022/01/02 09:20:12;;;;;;;0.50;0.10;;;9.70;1.00;;;;;;5078776;28;20448;-76
2022/01/02 09:22:40;;;;;;;0.50;0.10;;;9.80;1.00;;;;;;5095768;28;20531;-75
2022/01/02 09:25:09;;;;;;;1.53;0.70;;;9.80;1.00;;;;;;5097206;28;20479;-76
2022/01/02 09:27:41;;;;;;;0.53;0.23;;;;;;;;;;5093962;28;20459;-76
2022/01/02 09:30:10;;;;;;;4.10;3.90;;;9.70;1.00;;;;;;5086957;28;21005;-77
2022/01/02 09:32:38;;;;;;;5.67;4.50;;;9.70;1.00;;;;;;5095148;28;20803;-77
2022/01/02 09:35:09;;;;;;;1.90;1.40;;;9.50;1.00;;;;;;5093326;28;20453;-76
2022/01/02 09:37:37;;;;;;;2.40;1.63;;;9.50;1.00;;;;;;5073828;28;20477;-77
2022/01/02 09:40:07;;;;;;;1.20;0.70;;;9.30;1.00;;;;;;5091356;28;20475;-75
2022/01/02 09:42:37;;;;;;;0.80;0.63;;;9.30;1.00;;;;;;5079859;28;20437;-75
2022/01/02 09:45:08;;;;;;;0.50;0.10;;;9.30;1.00;;;;;;5087731;28;20514;-78
2022/01/02 09:47:37;;;;;;;1.70;1.60;;;9.40;1.00;;;;;;5087464;28;20456;-76
2022/01/02 09:50:10;;;;;;;0.90;0.53;;;9.40;1.00;;;;;;5077602;28;20437;-76
2022/01/02 09:52:38;;;;;;;0.60;0.30;;;9.60;1.00;;;;;;5089603;28;20449;-77
2022/01/02 09:55:07;;;;;;;1.20;1.20;;;9.60;1.00;;;;;;5087538;28;20456;-76
2022/01/02 09:57:35;;;;;;;0.50;0.20;;;;;;;;;;5090408;28;20469;-77
2022/01/02 10:00:03;;;;;;;1.33;1.23;;;9.70;1.00;;;;;;5098000;28;20452;-76
2022/01/02 10:02:54;;;;;;;1.73;0.93;;;9.70;1.00;;;;;;5082878;28;20462;-76
2022/01/02 10:05:24;;;;;;;0.50;0.10;;;9.70;1.00;;;;;;5085060;28;20461;-73
2022/01/02 10:07:53;;;;;;;0.50;0.10;;;9.80;1.00;;;;;;5072805;28;20432;-77
2022/01/02 10:10:21;;;;;;;4.00;3.07;;;9.80;1.00;;;;;;5072955;28;20458;-76
2022/01/02 10:12:49;;;;;;;3.40;2.30;;;9.70;1.00;;;;;;5072241;28;21033;-75
2022/01/02 10:15:20;;;;;;;0.60;0.33;;;9.60;1.00;;;;;;5126206;22;20976;-77
2022/01/02 10:17:55;;;;;;;0.57;0.27;;;9.60;1.00;;;;;;5117308;28;20478;-77
2022/01/02 10:20:25;;;;;;;3.43;1.30;;;9.50;1.00;;;;;;5118866;28;20481;-79
2022/01/02 10:23:20;;;;;;;0.80;0.60;;;9.50;1.00;;;;;;5101900;28;20512;-79
2022/01/02 10:25:56;;;;;;;5.10;1.90;;;9.40;1.00;;;;;;5103338;28;20488;-79
2022/01/02 10:28:31;;;;;;;0.87;0.37;;;9.40;1.00;;;;;;5109634;28;20435;-79
2022/01/02 10:31:02;;;;;;;0.50;0.10;;;9.40;1.00;;;;;;5115817;28;20859;-79
2022/01/02 10:33:47;;;;;;;0.50;0.20;;;9.40;1.00;;;;;;5102691;28;20938;-78
2022/01/02 10:36:15;;;;;;;4.63;1.53;;;9.40;1.00;;;;;;5114639;28;21027;-79
2022/01/02 10:39:03;;;;;;;0.53;0.10;;;9.40;1.00;;;;;;5120087;28;20857;-78
2022/01/02 10:41:33;;;;;;;1.47;1.13;;;9.40;1.00;;;;;;5124235;28;20535;-80
2022/01/02 10:44:29;;;;;;;0.50;0.17;;;9.50;1.00;;;;;;5110188;28;20448;-81
2022/01/02 10:47:15;;;;;;;0.50;0.10;;;9.40;1.00;;;;;;5124927;28;20455;-78
2022/01/02 10:49:53;;;;;;;1.30;1.03;;;9.40;1.00;;;;;;5119786;28;20450;-78
2022/01/02 10:52:23;;;;;;;0.50;0.10;;;9.40;1.00;;;;;;5112095;28;20462;-79
2022/01/02 10:54:51;;;;;;;2.73;2.63;;;9.40;1.00;;;;;;5102963;28;20523;-75
2022/01/02 10:57:19;;;;;;;0.50;0.10;;;9.40;1.00;;;;;;5125358;28;20435;-79
2022/01/02 10:59:47;;;;;;;3.33;1.63;;;9.40;1.00;;;;;;5121680;28;20486;-78
2022/01/02 11:02:17;;;;;;;0.50;0.10;;;9.40;1.00;;;;;;5113115;28;20981;-79
2022/01/02 11:04:56;;;;;;;3.70;3.50;;;9.50;1.00;;;;;;5119394;28;20487;-79
2022/01/02 11:07:25;;;;;;;0.50;0.10;;;9.50;1.00;;;;;;5114604;28;20427;-79
2022/01/02 11:09:55;;;;;;;0.50;0.10;;;9.50;1.00;;;;;;5106462;28;20967;-78
2022/01/02 11:12:27;;;;;;;0.60;0.20;;;9.50;1.00;;;;;;5110922;28;20942;-78
2022/01/02 11:14:56;;;;;;;0.50;0.20;;;9.60;1.00;;;;;;5115157;28;20443;-79
2022/01/02 11:17:25;;;;;;;0.60;0.37;;;9.60;1.00;;;;;;5116002;28;20451;-77
2022/01/02 11:19:54;;;;;;;0.50;0.10;;;9.60;1.00;;;;;;5125919;28;20548;-81
2022/01/02 11:22:29;;;;;;;1.10;0.83;;;9.70;1.00;;;;;;5110248;28;20472;-83
2022/01/02 11:25:02;;;;;;;3.50;1.60;;;9.70;1.00;;;;;;5110966;28;20980;-83
2022/01/02 11:27:40;;;;;;;0.50;0.10;;;9.70;1.00;;;;;;5113887;28;20427;-82
2022/01/02 11:30:39;;;;;;;0.70;0.37;;;9.50;1.00;;;;;;5113171;27;20470;-83
2022/01/02 11:33:10;;;;;;;1.33;1.23;;;9.50;1.00;;;;;;5083700;28;20461;-82
2022/01/02 11:35:42;;;;;;;0.67;0.57;;;9.60;1.00;;;;;;5131233;28;20482;-82
2022/01/02 11:38:11;;;;;;;1.70;1.07;;;9.60;1.00;;;;;;5126353;28;20496;-81
2022/01/02 11:40:52;;;;;;;5.70;2.90;;;9.60;1.00;;;;;;5117941;28;20513;-81
2022/01/02 11:43:51;;;;;;;5.30;5.00;;;9.60;1.00;;;;;;5123193;28;20444;-81
2022/01/02 11:46:21;;;;;;;0.50;0.20;;;9.70;1.00;;;;;;5113516;28;20550;-81
2022/01/02 11:49:15;;;;;;;0.50;0.10;;;9.70;1.00;;;;;;5107507;28;20900;-81
2022/01/02 11:52:21;;;;;;;0.60;0.27;;;9.80;1.00;;;;;;5107375;28;20484;-81
2022/01/02 11:54:57;;;;;;;1.27;1.17;;;9.80;1.00;;;;;;5111122;28;21084;-80
2022/01/02 11:57:52;;;;;;;0.50;0.20;;;9.80;1.00;;;;;;5117869;28;21064;-81
2022/01/02 12:00:40;;;;;;;0.60;0.10;;;9.80;1.00;;;;;;5120693;28;20803;-81
2022/01/02 12:03:47;;;;;;;0.67;0.57;;;9.80;1.00;;;;;;5115731;28;20534;-80
2022/01/02 12:06:19;;;;;;;4.67;4.40;;;9.80;1.00;;;;;;5117410;28;20463;-82
2022/01/02 12:08:48;;;;;;;0.70;0.20;;;9.80;1.00;;;;;;5117668;28;20443;-80
2022/01/02 12:11:45;;;;;;;1.43;1.30;;;9.90;1.00;;;;;;5118755;28;20793;-80
2022/01/02 12:14:22;;;;;;;1.33;1.23;;;9.90;1.00;;;;;;5119603;28;20538;-80
2022/01/02 12:16:58;;;;;;;2.70;1.03;;;9.90;1.00;;;;;;5117904;28;20471;-80
2022/01/02 12:19:26;;;;;;;2.20;1.30;;;9.90;1.00;;;;;;5118452;28;20477;-79
2022/01/02 12:22:12;;;;;;;0.63;0.23;;;9.90;1.00;;;;;;5118533;28;20470;-79
2022/01/02 12:24:43;;;;;;;0.60;0.20;;;;;;;;;;5123623;28;20805;-81
2022/01/02 12:27:13;;;;;;;1.53;1.23;;;10.00;1.00;;;;;;5130790;28;20486;-79
2022/01/02 12:29:42;;;;;;;3.37;1.37;;;10.00;1.00;;;;;;5123329;28;20443;-80
2022/01/02 12:32:10;;;;;;;2.60;1.60;;;10.00;1.00;;;;;;5119709;28;20447;-80
2022/01/02 12:34:40;;;;;;;5.00;2.67;;;9.90;1.00;;;;;;5116569;28;20485;-79
2022/01/02 12:37:08;;;;;;;3.40;1.90;;;9.90;1.00;;;;;;5116833;28;20446;-80
2022/01/02 12:39:40;;;;;;;0.60;0.33;;;9.90;1.00;;;;;;5119680;28;20485;-80
2022/01/02 12:42:14;;;;;;;2.10;1.70;;;10.00;1.00;;;;;;5127142;28;20507;-79
2022/01/02 12:44:44;;;;;;;3.13;1.60;;;10.00;1.00;;;;;;5122315;28;20459;-81
2022/01/02 12:47:24;;;;;;;1.30;1.20;;;10.10;1.00;;;;;;5118678;28;20458;-79
2022/01/02 12:49:57;;;;;;;1.00;0.83;;;10.20;1.00;;;;;;5118028;28;20428;-79
2022/01/02 12:52:26;;;;;;;1.80;0.77;;;10.30;1.00;;;;;;5117337;28;20439;-79
2022/01/02 12:54:54;;;;;;;5.50;2.40;;;10.50;1.00;;;;;;5118664;28;20438;-80
2022/01/02 12:57:23;;;;;;;9.93;2.00;;;10.50;1.00;;;;;;5117296;28;20494;-79
2022/01/02 12:59:55;;;;;;;3.70;1.50;;;10.60;1.00;;;;;;5117396;28;20475;-81
2022/01/02 13:02:25;;;;;;;0.60;0.20;;;10.60;1.00;;;;;;5118765;28;20972;-79
2022/01/02 13:04:55;;;;;;;0.70;0.60;;;10.60;1.00;;;;;;5119691;28;20442;-81
2022/01/02 13:07:24;;;;;;;6.03;3.03;;;10.60;1.00;;;;;;5118894;28;20450;-81
2022/01/02 13:09:54;;;;;;;0.70;0.50;;;10.70;1.00;;;;;;5120507;28;20432;-79
2022/01/02 13:12:26;;;;;;;7.40;1.70;;;10.60;1.00;;;;;;5127753;28;20883;-80
2022/01/02 13:14:55;;;;;;;1.90;1.57;;;10.70;1.00;;;;;;5124385;28;20432;-83
2022/01/02 13:17:26;;;;;;;0.60;0.20;;;10.60;1.00;;;;;;5119567;28;20462;-80
2022/01/02 13:19:59;;;;;;;2.40;2.17;;;10.80;1.00;;;;;;5121600;28;21019;-79
2022/01/02 13:22:29;;;;;;;0.60;0.40;;;10.80;1.00;;;;;;5127794;28;20439;-81
2022/01/02 13:25:19;;;;;;;1.33;0.93;;;10.90;1.00;;;;;;5119094;28;20455;-79
2022/01/02 13:27:54;;;;;;;0.60;0.10;;;11.00;1.00;;;;;;5120343;28;20439;-81
2022/01/02 13:30:25;;;;;;;1.20;0.70;;;11.10;1.00;;;;;;5123020;28;20428;-81
2022/01/02 13:32:53;;;;;;;1.50;0.83;;;11.20;1.00;;;;;;5110387;28;20593;-80